Time;durP1;ratioP1;P1;durP2;ratioP2;P2;SDS_P1;SDS_P2;PMS_P1;PMS_P2;Temp;Humidity;BMP_temperature;BMP_pressure;BME280_temperature;BME280_humidity;BME280_pressure;Samples;Min_cycle;Max_cycle;Signal;HPM_P1;HPM_P2
2021/09/08 00:01:50;;;;;;;21.38;15.57;;;;;;;16.77;100.00;100716.78;5033101;28;20111;-69
2021/09/08 00:04:34;;;;;;;18.63;15.25;;;;;;;16.74;100.00;100717.97;5033594;28;20048;-68
2021/09/08 00:07:18;;;;;;;21.48;17.05;;;;;;;16.70;100.00;100716.63;5033939;28;20048;-68
2021/09/08 00:10:04;;;;;;;24.77;15.88;;;;;;;16.68;100.00;100707.88;5019013;28;20461;-69
2021/09/08 00:12:48;;;;;;;20.52;16.02;;;;;;;16.65;100.00;100712.75;5034138;28;20047;-68
2021/09/08 00:15:32;;;;;;;26.65;17.80;;;;;;;16.67;100.00;100714.28;5033735;28;20052;-69
2021/09/08 00:18:16;;;;;;;21.38;15.75;;;;;;;16.65;100.00;100712.75;5018796;28;20053;-69
2021/09/08 00:21:00;;;;;;;22.17;17.13;;;;;;;16.64;100.00;100708.41;5032655;28;20099;-69
2021/09/08 00:23:43;;;;;;;18.83;15.20;;;;;;;16.62;100.00;100700.50;5032962;28;20044;-68
2021/09/08 00:26:27;;;;;;;26.40;16.75;;;;;;;16.62;100.00;100705.03;5032750;28;20527;-69
2021/09/08 00:29:11;;;;;;;22.83;16.83;;;;;;;16.58;100.00;100711.78;5032969;28;20116;-68
2021/09/08 00:31:55;;;;;;;21.55;17.08;;;;;;;16.53;100.00;100709.63;5032903;28;20549;-69
2021/09/08 00:34:39;;;;;;;22.27;16.17;;;;;;;16.51;100.00;100700.03;5032662;28;20052;-67
2021/09/08 00:37:23;;;;;;;21.02;15.80;;;;;;;16.49;100.00;100708.25;5033735;28;20507;-69
2021/09/08 00:40:08;;;;;;;21.17;16.70;;;;;;;16.43;100.00;100698.19;5032391;28;20052;-69
2021/09/08 00:42:52;;;;;;;21.70;16.08;;;;;;;16.41;100.00;100699.38;5032637;28;20045;-69
2021/09/08 00:45:36;;;;;;;17.88;15.00;;;;;;;16.37;100.00;100701.56;5032257;28;20145;-69
2021/09/08 00:48:19;;;;;;;21.83;15.75;;;;;;;16.35;100.00;100692.78;5018869;28;20091;-69
2021/09/08 00:51:03;;;;;;;20.05;16.30;;;;;;;16.31;100.00;100704.06;5032285;28;20064;-69
2021/09/08 00:53:50;;;;;;;22.83;16.13;;;;;;;16.23;100.00;100696.84;5032364;28;20092;-69
2021/09/08 00:56:35;;;;;;;21.75;16.20;;;;;;;16.22;100.00;100697.84;5032514;28;20051;-68
2021/09/08 00:59:20;;;;;;;19.83;15.75;;;;;;;16.21;100.00;100700.72;5018460;28;20096;-69
2021/09/08 01:02:04;;;;;;;21.25;15.95;;;;;;;16.17;100.00;100696.69;5018754;28;20044;-67
2021/09/08 01:04:48;;;;;;;20.83;15.75;;;;;;;16.15;100.00;100698.72;5033017;28;20059;-68
2021/09/08 01:07:33;;;;;;;21.95;16.10;;;;;;;16.14;100.00;100699.69;5032368;28;20486;-67
2021/09/08 01:13:58;;;;;;;23.45;16.67;;;;;;;16.10;100.00;100696.53;5033244;28;20068;-68
2021/09/08 01:16:47;;;;;;;21.33;15.60;;;;;;;16.06;100.00;100684.41;5032944;28;20180;-69
2021/09/08 01:19:32;;;;;;;18.42;15.65;;;;;;;16.02;100.00;100682.22;5018291;28;20475;-68
2021/09/08 01:22:16;;;;;;;17.70;14.15;;;;;;;15.97;100.00;100684.59;5022253;28;20044;-68
2021/09/08 01:25:00;;;;;;;20.35;15.15;;;;;;;15.94;100.00;100683.06;5022068;28;20076;-68
2021/09/08 01:27:44;;;;;;;19.23;14.85;;;;;;;15.89;100.00;100676.53;5036215;28;20149;-68
2021/09/08 01:41:50;;;;;;;20.15;15.07;;;;;;;15.70;100.00;100671.47;5036861;28;20514;-69
2021/09/08 01:44:34;;;;;;;17.50;14.52;;;;;;;15.66;100.00;100673.66;5021874;28;20060;-69
2021/09/08 01:47:20;;;;;;;20.08;16.63;;;;;;;15.64;100.00;100672.97;5021921;28;20106;-68
2021/09/08 01:50:09;;;;;;;23.63;17.02;;;;;;;15.64;100.00;100669.47;5036767;28;20044;-69
2021/09/08 01:52:53;;;;;;;21.65;16.02;;;;;;;15.64;100.00;100672.16;5035537;28;20048;-68
2021/09/08 01:55:38;;;;;;;19.88;15.63;;;;;;;15.63;100.00;100664.25;5035523;28;20128;-68
2021/09/08 01:58:22;;;;;;;20.73;16.13;;;;;;;15.60;100.00;100664.59;5035635;28;20103;-68
2021/09/08 02:01:06;;;;;;;18.67;16.15;;;;;;;15.61;100.00;100666.28;5036300;28;20095;-68
2021/09/08 02:03:50;;;;;;;21.42;16.20;;;;;;;15.58;100.00;100662.88;5035593;28;20511;-68
2021/09/08 02:06:35;;;;;;;20.88;15.27;;;;;;;15.57;100.00;100656.84;5035774;28;20041;-68
2021/09/08 02:09:22;;;;;;;20.90;17.17;;;;;;;15.57;100.00;100655.00;5035202;28;20051;-69
2021/09/08 02:12:05;;;;;;;26.17;17.02;;;;;;;15.55;100.00;100656.19;5036111;28;20095;-68
2021/09/08 02:14:50;;;;;;;24.52;17.52;;;;;;;15.57;100.00;100659.53;5035143;28;20048;-68
2021/09/08 02:17:34;;;;;;;23.17;16.60;;;;;;;15.56;100.00;100660.53;5035312;28;20419;-68
2021/09/08 02:20:18;;;;;;;22.02;15.40;;;;;;;15.55;100.00;100651.66;5035230;28;20477;-69
2021/09/08 02:23:01;;;;;;;22.70;16.90;;;;;;;15.54;100.00;100649.97;5035958;28;20052;-68
2021/09/08 02:25:45;;;;;;;21.70;15.85;;;;;;;15.54;100.00;100643.75;5020763;28;20444;-68
2021/09/08 02:28:29;;;;;;;21.45;16.08;;;;;;;15.52;100.00;100646.59;5021418;28;20052;-68
2021/09/08 02:31:16;;;;;;;20.05;15.90;;;;;;;15.50;100.00;100653.16;5035680;28;20117;-68
2021/09/08 02:34:00;;;;;;;21.92;17.13;;;;;;;15.50;100.00;100650.47;5021445;28;20068;-68
2021/09/08 02:36:44;;;;;;;22.45;16.77;;;;;;;15.45;100.00;100644.75;5020991;28;20057;-68
2021/09/08 02:39:28;;;;;;;20.35;17.00;;;;;;;15.43;100.00;100644.91;5035585;28;20056;-68
2021/09/08 02:42:12;;;;;;;22.58;16.98;;;;;;;15.40;100.00;100639.03;5034859;28;20103;-68
2021/09/08 02:44:56;;;;;;;25.30;17.27;;;;;;;15.37;100.00;100633.97;5035648;28;20080;-69
2021/09/08 02:47:40;;;;;;;27.95;17.17;;;;;;;15.32;100.00;100634.47;5035036;28;20091;-68
2021/09/08 02:50:24;;;;;;;24.27;16.77;;;;;;;15.34;100.00;100631.63;5034461;28;20044;-68
2021/09/08 02:53:07;;;;;;;25.23;16.58;;;;;;;15.35;100.00;100633.31;5020704;28;20518;-69
2021/09/08 02:55:51;;;;;;;27.65;15.80;;;;;;;15.35;100.00;100633.31;5034551;28;20120;-66
2021/09/08 02:58:35;;;;;;;23.58;16.17;;;;;;;15.34;100.00;100628.94;5034551;28;20044;-68
2021/09/08 03:01:20;;;;;;;23.45;16.15;;;;;;;15.32;100.00;100636.34;5034247;28;20053;-68
2021/09/08 03:04:04;;;;;;;27.10;16.83;;;;;;;15.31;100.00;100622.06;5034480;28;20048;-68
2021/09/08 03:06:49;;;;;;;22.95;18.02;;;;;;;15.29;100.00;100628.59;5035163;28;20056;-69
2021/09/08 03:09:32;;;;;;;23.33;17.70;;;;;;;15.22;100.00;100630.25;5035143;28;20419;-69
2021/09/08 03:12:16;;;;;;;23.23;16.85;;;;;;;15.21;100.00;100631.25;5020372;28;20079;-68
2021/09/08 03:15:00;;;;;;;22.15;15.95;;;;;;;15.19;100.00;100622.53;5020238;28;20232;-68
2021/09/08 03:17:44;;;;;;;25.10;16.67;;;;;;;15.17;100.00;100632.56;5035001;28;20094;-68
2021/09/08 03:20:28;;;;;;;22.67;16.15;;;;;;;15.14;100.00;100624.84;5033834;28;20099;-69
2021/09/08 03:23:12;;;;;;;21.80;16.02;;;;;;;15.10;100.00;100627.03;5035120;28;20128;-69
2021/09/08 03:25:56;;;;;;;20.30;15.95;;;;;;;15.08;100.00;100633.59;5035296;28;20052;-68
2021/09/08 03:28:40;;;;;;;18.25;14.77;;;;;;;15.05;100.00;100624.00;5034021;28;20056;-68
2021/09/08 03:31:24;;;;;;;18.77;14.82;;;;;;;15.00;100.00;100622.81;5034992;28;20175;-68
2021/09/08 03:34:08;;;;;;;19.08;15.38;;;;;;;15.00;100.00;100623.63;5033886;28;20115;-68
2021/09/08 03:36:52;;;;;;;23.15;16.13;;;;;;;14.97;100.00;100620.44;5033874;28;20107;-68
2021/09/08 03:39:36;;;;;;;18.92;15.57;;;;;;;14.95;100.00;100620.63;5033483;28;20053;-68
2021/09/08 03:42:21;;;;;;;17.80;15.35;;;;;;;14.93;100.00;100616.41;5034699;28;20064;-68
2021/09/08 03:45:05;;;;;;;23.05;15.80;;;;;;;14.92;100.00;100620.09;5033335;28;20471;-68
2021/09/08 03:47:49;;;;;;;20.50;16.73;;;;;;;14.90;100.00;100617.56;5033631;28;20192;-68
2021/09/08 03:50:33;;;;;;;23.85;16.25;;;;;;;14.86;100.00;100616.22;5033615;28;20100;-68
2021/09/08 03:53:17;;;;;;;21.15;16.05;;;;;;;14.83;100.00;100613.03;5019279;28;20045;-68
2021/09/08 03:56:01;;;;;;;22.00;16.33;;;;;;;14.80;100.00;100618.72;5034468;28;20123;-69
2021/09/08 03:58:45;;;;;;;22.10;16.02;;;;;;;14.79;100.00;100625.09;5019691;28;20048;-68
2021/09/08 04:01:29;;;;;;;19.15;16.27;;;;;;;14.79;100.00;100619.72;5034142;28;20053;-68
2021/09/08 04:04:13;;;;;;;19.73;16.00;;;;;;;14.78;100.00;100623.41;5033357;28;20079;-68
2021/09/08 04:06:57;;;;;;;24.00;17.38;;;;;;;14.75;100.00;100613.84;5033542;28;20124;-68
2021/09/08 04:09:42;;;;;;;;;;;;;;;14.72;100.00;100603.44;5033399;28;20095;-68
2021/09/08 04:12:25;;;;;;;23.10;16.38;;;;;;;14.71;100.00;100598.22;5018968;28;19939;-68
2021/09/08 04:15:10;;;;;;;21.67;15.60;;;;;;;14.68;100.00;100601.25;5018855;28;20076;-68
2021/09/08 04:17:54;;;;;;;19.63;16.30;;;;;;;14.65;100.00;100594.34;5033080;28;20060;-68
2021/09/08 04:20:38;;;;;;;20.58;16.52;;;;;;;14.62;100.00;100602.72;5032995;28;20558;-68
2021/09/08 04:23:22;;;;;;;26.98;17.95;;;;;;;14.59;100.00;100602.22;5019366;28;20400;-68
2021/09/08 04:26:06;;;;;;;24.83;18.73;;;;;;;14.57;100.00;100604.22;5018602;28;20103;-68
2021/09/08 04:28:50;;;;;;;26.67;18.33;;;;;;;14.56;100.00;100591.78;5032795;28;20048;-68
2021/09/08 04:31:34;;;;;;;;;;;;;;;14.54;100.00;100591.97;5032979;28;20522;-68
2021/09/08 04:34:18;;;;;;;22.67;17.55;;;;;;;14.54;100.00;100599.16;5018614;28;19924;-69
2021/09/08 04:37:02;;;;;;;24.13;16.45;;;;;;;14.52;100.00;100601.16;5033987;28;20087;-68
2021/09/08 04:39:46;;;;;;;24.50;16.83;;;;;;;14.50;100.00;100604.00;5018724;28;20048;-68
2021/09/08 04:42:30;;;;;;;21.42;17.30;;;;;;;14.47;100.00;100598.97;5032739;28;20131;-68
2021/09/08 04:45:14;;;;;;;24.70;17.23;;;;;;;14.46;100.00;100607.16;5018547;28;20056;-68
2021/09/08 04:47:58;;;;;;;23.48;17.30;;;;;;;14.46;100.00;100607.16;5033686;28;20501;-68
2021/09/08 04:50:42;;;;;;;22.98;17.25;;;;;;;14.42;100.00;100601.31;5032876;28;20095;-68
2021/09/08 04:53:26;;;;;;;23.02;16.85;;;;;;;14.42;100.00;100603.13;5033794;28;20056;-69
2021/09/08 04:56:10;;;;;;;22.52;17.13;;;;;;;14.40;100.00;100602.47;5031409;28;20079;-68
2021/09/08 04:58:54;;;;;;;23.80;16.73;;;;;;;14.35;100.00;100599.41;5032536;28;20045;-68
2021/09/08 05:01:38;;;;;;;22.10;17.42;;;;;;;14.34;100.00;100606.63;5032467;28;20039;-68
2021/09/08 05:04:22;;;;;;;25.00;17.48;;;;;;;14.35;100.00;100610.97;5032317;28;20419;-69
2021/09/08 05:07:06;;;;;;;21.50;17.30;;;;;;;14.36;100.00;100606.44;5018506;28;20053;-68
2021/09/08 05:09:49;;;;;;;24.63;17.80;;;;;;;14.37;100.00;100602.78;5018681;28;20095;-69
2021/09/08 05:12:34;;;;;;;26.08;19.17;;;;;;;14.40;100.00;100605.13;5032056;28;20490;-68
2021/09/08 05:15:17;;;;;;;22.70;17.75;;;;;;;14.42;100.00;100600.44;5033548;28;20195;-67
2021/09/08 05:18:01;;;;;;;23.17;17.27;;;;;;;14.41;100.00;100602.31;5033315;28;20055;-69
2021/09/08 05:20:45;;;;;;;24.88;17.83;;;;;;;14.44;100.00;100601.13;5018161;28;20511;-68
2021/09/08 05:23:29;;;;;;;30.80;18.52;;;;;;;14.47;100.00;100600.81;5033244;28;20052;-68
2021/09/08 05:26:13;;;;;;;24.50;18.33;;;;;;;14.52;100.00;100599.34;5031790;28;20550;-69
2021/09/08 05:28:57;;;;;;;24.80;18.85;;;;;;;14.56;100.00;100597.16;5033472;28;20068;-69
2021/09/08 05:31:42;;;;;;;24.90;18.88;;;;;;;14.60;100.00;100606.56;5031912;28;20040;-67
2021/09/08 05:34:26;;;;;;;23.77;17.98;;;;;;;14.66;100.00;100606.75;5032219;28;20057;-69
2021/09/08 05:37:10;;;;;;;26.33;18.27;;;;;;;14.74;100.00;100605.94;5032094;28;20048;-68
2021/09/08 05:39:54;;;;;;;24.80;16.55;;;;;;;14.77;100.00;100606.47;5032667;28;20415;-69
2021/09/08 05:42:38;;;;;;;24.27;17.60;;;;;;;14.83;100.00;100607.66;5032127;28;20111;-68
2021/09/08 05:45:24;;;;;;;;;;;;;;;14.92;100.00;100609.38;5032428;28;20048;-68
2021/09/08 05:48:09;;;;;;;24.27;16.75;;;;;;;15.00;100.00;100601.34;5031750;28;19920;-68
2021/09/08 05:50:53;;;;;;;25.85;17.95;;;;;;;15.08;100.00;100610.25;5032652;28;20043;-69
2021/09/08 05:53:38;;;;;;;24.60;17.33;;;;;;;15.19;100.00;100606.41;5031672;28;20057;-68
2021/09/08 05:56:22;;;;;;;27.50;17.35;;;;;;;15.28;100.00;100605.38;5031792;28;20518;-68
2021/09/08 05:59:06;;;;;;;30.42;18.42;;;;;;;15.37;100.00;100609.81;5031975;28;20103;-68
2021/09/08 06:01:49;;;;;;;27.48;18.10;;;;;;;15.46;100.00;100609.66;5031644;28;20076;-68
2021/09/08 06:04:33;;;;;;;22.25;16.50;;;;;;;15.56;100.00;100609.47;5017776;28;20573;-69
2021/09/08 06:07:17;;;;;;;28.52;18.23;;;;;;;15.64;100.00;100602.28;5033654;28;20044;-69
2021/09/08 06:10:01;;;;;;;24.52;18.60;;;;;;;15.71;100.00;100600.56;5021542;28;20041;-68
2021/09/08 06:12:45;;;;;;;23.88;17.13;;;;;;;15.80;100.00;100607.63;5035419;28;20053;-68
2021/09/08 06:15:29;;;;;;;22.75;17.63;;;;;;;15.89;100.00;100602.09;5035001;28;20056;-68
2021/09/08 06:18:13;;;;;;;24.35;16.48;;;;;;;16.01;100.00;100606.09;5035054;28;20052;-69
2021/09/08 06:20:58;;;;;;;23.48;16.45;;;;;;;16.12;100.00;100607.59;5035258;28;20103;-68
2021/09/08 06:23:42;;;;;;;24.15;17.10;;;;;;;16.21;100.00;100602.03;5035264;28;20587;-69
2021/09/08 06:26:26;;;;;;;;;;;;;;;16.31;100.00;100599.97;5035192;28;20427;-67
2021/09/08 06:29:10;;;;;;;23.48;16.33;;;;;;;16.38;100.00;100592.91;5035466;28;19951;-68
2021/09/08 06:31:54;;;;;;;21.98;15.85;;;;;;;16.50;100.00;100588.81;5021189;28;20408;-69
2021/09/08 06:34:38;;;;;;;24.77;16.83;;;;;;;16.60;100.00;100592.16;5034739;28;20091;-69
2021/09/08 06:37:22;;;;;;;21.10;15.68;;;;;;;16.71;100.00;100591.78;5035037;28;20053;-68
2021/09/08 06:40:06;;;;;;;20.48;15.15;;;;;;;16.79;100.00;100597.09;5021104;28;20514;-68
2021/09/08 06:42:50;;;;;;;24.77;16.38;;;;;;;16.93;100.00;100591.00;5034802;28;20096;-67
2021/09/08 06:45:35;;;;;;;22.13;16.52;;;;;;;17.01;100.00;100590.09;5035505;28;20051;-69
2021/09/08 06:48:19;;;;;;;23.88;15.32;;;;;;;17.10;100.00;100584.47;5034807;28;20416;-68
2021/09/08 06:51:03;;;;;;;21.40;15.70;;;;;;;17.21;100.00;100585.94;5020473;28;20099;-69
2021/09/08 06:53:47;;;;;;;17.67;13.55;;;;;;;17.31;100.00;100581.97;5035456;28;20455;-69
2021/09/08 06:56:31;;;;;;;21.35;14.52;;;;;;;17.37;100.00;100578.59;5020354;28;20052;-69
2021/09/08 06:59:15;;;;;;;;;;;;;;;17.45;100.00;100583.94;5020781;28;20124;-69
2021/09/08 07:01:59;;;;;;;21.25;14.38;;;;;;;17.54;100.00;100582.84;5034869;28;20418;-67
2021/09/08 07:04:43;;;;;;;19.40;14.38;;;;;;;17.66;100.00;100578.69;5020411;28;20044;-69
2021/09/08 07:07:27;;;;;;;17.52;13.57;;;;;;;17.74;100.00;100573.25;5034612;28;20098;-69
2021/09/08 07:10:11;;;;;;;25.08;15.00;;;;;;;17.82;100.00;100565.06;5034140;28;20048;-69
2021/09/08 07:12:55;;;;;;;20.20;15.57;;;;;;;17.89;100.00;100576.78;5034702;28;20048;-69
2021/09/08 07:15:39;;;;;;;20.77;15.48;;;;;;;17.97;99.29;100568.63;5034076;28;20435;-69
2021/09/08 07:18:23;;;;;;;20.27;14.73;;;;;;;18.06;99.33;100566.66;5032971;28;20517;-69
2021/09/08 07:21:07;;;;;;;20.38;14.98;;;;;;;18.15;97.55;100565.56;5033819;28;20160;-69
2021/09/08 07:23:51;;;;;;;17.58;13.73;;;;;;;18.20;96.65;100568.56;5034102;28;20052;-68
2021/09/08 07:26:35;;;;;;;17.13;13.60;;;;;;;18.27;96.90;100574.88;5033848;28;20056;-68
2021/09/08 07:29:19;;;;;;;17.25;13.80;;;;;;;18.35;96.09;100559.47;5034280;28;20107;-69
2021/09/08 07:32:05;;;;;;;17.42;13.90;;;;;;;18.42;94.30;100557.69;5034207;28;20191;-69
2021/09/08 07:34:49;;;;;;;19.60;14.38;;;;;;;18.56;93.31;100560.38;5034000;28;20634;-69
2021/09/08 07:37:33;;;;;;;18.45;13.68;;;;;;;18.64;91.88;100562.13;5034938;28;20111;-69
2021/09/08 07:40:18;;;;;;;20.00;13.07;;;;;;;18.75;90.19;100554.38;5033872;28;20503;-69
2021/09/08 07:43:02;;;;;;;20.27;13.73;;;;;;;18.82;89.30;100547.19;5033646;28;20068;-68
2021/09/08 07:45:47;;;;;;;20.20;13.32;;;;;;;18.94;89.06;100550.22;5019752;28;20084;-68
2021/09/08 07:48:31;;;;;;;19.80;13.65;;;;;;;19.01;88.34;100556.53;5033375;28;20133;-68
2021/09/08 07:51:15;;;;;;;15.88;12.82;;;;;;;19.12;89.00;100550.63;5019405;28;20048;-68
2021/09/08 07:53:59;;;;;;;25.60;13.60;;;;;;;19.14;87.43;100553.97;5033583;28;20455;-68
2021/09/08 07:56:43;;;;;;;18.10;13.18;;;;;;;19.24;87.48;100549.13;5033458;28;20056;-68
2021/09/08 07:59:26;;;;;;;20.10;14.38;;;;;;;19.28;87.37;100555.84;5033116;28;20115;-68
2021/09/08 08:02:10;;;;;;;16.25;12.55;;;;;;;19.37;86.62;100555.50;5034039;28;20052;-68
2021/09/08 08:04:54;;;;;;;16.67;13.23;;;;;;;19.48;86.83;100554.16;5033942;28;20056;-68
2021/09/08 08:07:38;;;;;;;17.65;12.63;;;;;;;19.55;86.43;100547.78;5033034;28;20056;-67
2021/09/08 08:10:22;;;;;;;;;;;;;;;19.63;86.37;100539.53;5019767;28;20040;-68
2021/09/08 08:13:06;;;;;;;21.40;13.90;;;;;;;19.70;84.64;100534.97;5018976;28;19920;-68
2021/09/08 08:15:50;;;;;;;17.23;12.57;;;;;;;19.83;85.06;100536.97;5019116;28;20048;-69
2021/09/08 08:18:34;;;;;;;17.98;13.73;;;;;;;19.93;85.20;100530.19;5033374;28;20554;-69
2021/09/08 08:21:18;;;;;;;;;;;;;;;20.06;83.13;100530.28;5034470;28;20056;-68
2021/09/08 08:24:02;;;;;;;17.67;12.80;;;;;;;20.26;80.67;100530.41;5033096;28;20438;-68
2021/09/08 08:26:46;;;;;;;14.25;11.75;;;;;;;20.41;81.10;100523.81;5033995;28;20420;-68
2021/09/08 08:29:30;;;;;;;16.15;11.43;;;;;;;20.55;79.79;100513.88;5018812;28;20466;-68
2021/09/08 08:32:14;;;;;;;16.65;11.82;;;;;;;20.69;77.84;100521.00;5033786;28;20483;-68
2021/09/08 08:34:58;;;;;;;16.42;12.20;;;;;;;20.83;75.47;100511.91;5032730;28;20047;-69
2021/09/08 08:37:42;;;;;;;16.00;11.52;;;;;;;20.92;74.44;100508.00;5019187;28;20087;-68
2021/09/08 08:40:27;;;;;;;15.05;11.13;;;;;;;21.04;74.52;100509.06;5032724;28;20044;-69
2021/09/08 08:43:11;;;;;;;14.93;11.40;;;;;;;21.16;73.29;100510.13;5032709;28;20068;-69
2021/09/08 08:45:55;;;;;;;13.73;10.88;;;;;;;21.31;72.82;100507.03;5018615;28;20056;-68
2021/09/08 08:48:39;;;;;;;14.55;10.43;;;;;;;21.47;71.12;100506.59;5032481;28;20121;-68
2021/09/08 08:51:22;;;;;;;12.73;10.77;;;;;;;21.62;72.12;100506.41;5018671;28;20048;-69
2021/09/08 08:54:06;;;;;;;14.35;9.68;;;;;;;21.79;69.02;100508.50;5018597;28;20519;-68
2021/09/08 08:56:52;;;;;;;16.65;11.63;;;;;;;21.96;69.01;100501.59;5032519;28;20144;-68
2021/09/08 08:59:37;;;;;;;12.55;10.38;;;;;;;22.19;67.07;100498.41;5018242;28;20047;-69
2021/09/08 09:02:30;;;;;;;17.70;10.32;;;;;;;22.35;65.95;100498.78;5032469;28;20102;-69
2021/09/08 09:05:47;;;;;;;11.27;9.73;;;;;;;22.58;64.70;100490.13;5032165;28;20531;-68
2021/09/08 09:08:35;;;;;;;17.00;10.80;;;;;;;22.80;63.30;100489.59;5007330;28;20040;-69
2021/09/08 09:11:19;;;;;;;17.67;10.45;;;;;;;23.03;63.15;100487.16;5033328;28;20051;-68
2021/09/08 09:14:06;;;;;;;14.60;10.13;;;;;;;23.27;62.67;100491.00;5033511;28;20048;-68
2021/09/08 09:16:49;;;;;;;12.43;9.98;;;;;;;23.43;59.54;100480.41;5033120;28;20056;-69
2021/09/08 09:19:45;;;;;;;12.93;9.45;;;;;;;23.73;57.57;100481.41;5032880;28;20095;-69
2021/09/08 09:23:04;;;;;;;11.45;9.38;;;;;;;24.13;57.53;100476.44;5032433;28;20408;-69
2021/09/08 09:25:57;;;;;;;12.23;9.73;;;;;;;24.44;56.80;100474.38;5007133;22;20137;-69
2021/09/08 09:28:44;;;;;;;11.70;9.38;;;;;;;24.75;55.80;100476.91;5017353;28;20518;-72
2021/09/08 09:31:27;;;;;;;15.35;9.68;;;;;;;25.02;53.79;100467.31;5017993;28;20111;-72
2021/09/08 09:34:11;;;;;;;14.82;9.43;;;;;;;25.37;54.12;100473.69;5004307;28;20049;-70
2021/09/08 09:36:57;;;;;;;11.35;9.57;;;;;;;25.80;51.05;100461.41;5023311;28;20523;-72
2021/09/08 09:39:41;;;;;;;12.88;9.05;;;;;;;26.45;49.65;100456.56;4998272;28;20513;-72
2021/09/08 09:42:31;;;;;;;;;;;;;;;27.30;46.51;100454.44;5015769;28;20563;-72
2021/09/08 09:45:15;;;;;;;11.15;9.35;;;;;;;28.52;42.54;100456.03;5016866;28;19963;-72
2021/09/08 09:48:01;;;;;;;13.45;8.38;;;;;;;30.54;39.47;100450.84;4988330;28;20045;-72
2021/09/08 09:50:46;;;;;;;10.63;8.52;;;;;;;32.74;34.00;100448.03;4988282;28;20041;-73
2021/09/08 09:53:32;;;;;;;9.55;7.78;;;;;;;34.81;29.42;100442.78;5002234;28;20053;-73
2021/09/08 09:56:15;;;;;;;10.18;8.18;;;;;;;36.27;27.95;100444.75;5001998;28;20125;-71
2021/09/08 09:58:59;;;;;;;9.27;8.30;;;;;;;37.18;25.82;100439.69;5017111;28;20137;-73
2021/09/08 10:01:44;;;;;;;11.20;8.45;;;;;;;38.76;24.57;100428.41;5001679;28;20409;-73
2021/09/08 10:04:28;;;;;;;9.02;7.05;;;;;;;39.09;22.09;100435.19;5001910;28;20152;-72
2021/09/08 10:07:12;;;;;;;8.77;7.30;;;;;;;39.75;20.98;100427.13;5001848;28;20073;-72
2021/09/08 10:10:03;;;;;;;10.52;7.03;;;;;;;40.06;20.64;100428.53;4988200;28;20061;-72
2021/09/08 10:12:52;;;;;;;7.65;6.85;;;;;;;41.26;18.86;100420.22;5016402;28;20084;-72
2021/09/08 10:15:36;;;;;;;10.35;7.93;;;;;;;41.30;18.98;100408.03;5001849;28;20100;-72
2021/09/08 10:18:25;;;;;;;7.97;7.18;;;;;;;41.54;18.47;100407.28;5001499;28;20053;-72
2021/09/08 10:21:18;;;;;;;7.90;7.20;;;;;;;42.04;18.45;100405.88;5016152;28;20053;-72
2021/09/08 10:24:06;;;;;;;12.50;7.57;;;;;;;42.53;18.07;100401.97;5002499;28;20238;-73
2021/09/08 10:26:51;;;;;;;8.77;7.85;;;;;;;43.15;17.01;100394.69;5001762;28;20052;-72
2021/09/08 10:29:35;;;;;;;9.70;7.63;;;;;;;43.65;16.60;100391.31;5001901;28;20128;-73
2021/09/08 10:32:20;;;;;;;9.23;7.47;;;;;;;43.86;16.35;100394.69;5001141;28;20427;-72
2021/09/08 10:35:16;;;;;;;8.57;7.40;;;;;;;44.50;16.00;100386.72;5001203;28;20111;-72
2021/09/08 10:38:00;;;;;;;8.15;7.20;;;;;;;44.76;16.12;100384.09;5001087;28;20099;-73
2021/09/08 10:40:46;;;;;;;13.15;7.82;;;;;;;44.97;15.35;100376.16;4987247;28;20092;-73
2021/09/08 10:43:32;;;;;;;9.13;7.90;;;;;;;44.96;15.47;100366.09;5001336;28;20446;-72
2021/09/08 10:46:16;;;;;;;9.98;7.88;;;;;;;44.63;15.55;100374.19;5001126;28;20053;-71
2021/09/08 10:49:00;;;;;;;9.25;7.75;;;;;;;44.76;15.50;100361.59;4987329;28;20052;-73
2021/09/08 10:51:44;;;;;;;8.07;7.38;;;;;;;44.95;15.32;100358.81;4987388;28;20068;-73
2021/09/08 10:54:28;;;;;;;8.50;7.70;;;;;;;44.74;15.64;100355.53;5000071;28;20064;-72
2021/09/08 10:57:41;;;;;;;10.43;9.50;;;;;;;44.79;15.75;100356.09;5000865;28;20107;-73
2021/09/08 11:00:37;;;;;;;12.85;9.15;;;;;;;45.52;15.28;100350.31;5015487;28;20473;-72
2021/09/08 11:03:20;;;;;;;9.10;7.50;;;;;;;46.00;15.23;100363.72;5000721;28;20085;-72
2021/09/08 11:06:05;;;;;;;10.02;8.50;;;;;;;46.28;14.42;100346.09;5015489;28;20796;-73
2021/09/08 11:08:48;;;;;;;9.48;7.63;;;;;;;46.98;14.41;100343.47;5000664;28;20052;-73
2021/09/08 11:11:32;;;;;;;9.38;7.75;;;;;;;47.06;14.17;100342.34;5000456;28;20523;-71
2021/09/08 11:14:16;;;;;;;12.02;7.82;;;;;;;46.62;13.71;100330.88;5015225;28;20554;-72
2021/09/08 11:17:02;;;;;;;10.40;8.32;;;;;;;47.35;14.36;100335.88;5000356;28;20572;-72
2021/09/08 11:19:54;;;;;;;11.00;8.45;;;;;;;46.91;14.64;100332.88;5000361;28;20044;-72
2021/09/08 11:22:39;;;;;;;9.82;8.02;;;;;;;46.72;13.74;100333.03;5000630;28;20508;-72
2021/09/08 11:25:28;;;;;;;10.38;8.18;;;;;;;47.45;13.69;100338.78;5000118;28;20129;-73
2021/09/08 11:28:13;;;;;;;8.98;8.07;;;;;;;47.51;13.79;100323.09;5000021;28;20049;-72
2021/09/08 11:30:57;;;;;;;10.68;9.68;;;;;;;47.99;13.65;100335.25;5015202;28;20092;-73
2021/09/08 11:33:42;;;;;;;11.65;9.60;;;;;;;48.32;13.39;100323.78;5000297;28;20049;-72
2021/09/08 11:36:27;;;;;;;9.60;8.55;;;;;;;48.36;13.10;100321.81;4986351;28;20095;-72
2021/09/08 11:39:14;;;;;;;9.75;8.90;;;;;;;48.78;12.39;100327.75;5000209;28;20153;-73
2021/09/08 11:42:04;;;;;;;8.93;8.07;;;;;;;49.38;12.25;100338.06;5014872;28;20092;-73
2021/09/08 11:44:54;;;;;;;8.85;8.00;;;;;;;49.23;13.07;100327.94;5014967;28;20104;-73
2021/09/08 11:47:48;;;;;;;9.95;8.82;;;;;;;48.84;12.07;100326.97;5000073;28;20446;-72
2021/09/08 11:50:33;;;;;;;10.52;9.07;;;;;;;48.93;12.53;100324.56;5014971;28;20521;-72
2021/09/08 11:53:24;;;;;;;9.48;8.45;;;;;;;49.12;12.81;100326.28;5014818;28;20057;-72
2021/09/08 11:56:13;;;;;;;12.05;8.27;;;;;;;49.36;12.78;100315.00;4999826;28;20132;-74
2021/09/08 11:58:59;;;;;;;9.18;8.30;;;;;;;49.35;12.01;100319.03;5000120;28;20053;-72
2021/09/08 12:01:43;;;;;;;9.57;8.50;;;;;;;48.55;13.06;100319.53;4999765;28;20041;-72
2021/09/08 12:04:28;;;;;;;11.25;8.85;;;;;;;48.79;13.03;100310.34;5013899;28;20096;-73
2021/09/08 12:07:12;;;;;;;9.93;8.38;;;;;;;48.96;13.28;100314.44;5014478;28;20053;-72
2021/09/08 12:09:56;;;;;;;11.75;8.73;;;;;;;49.05;12.58;100298.72;4999425;28;20045;-72
2021/09/08 12:12:40;;;;;;;9.52;8.52;;;;;;;49.27;12.86;100294.75;4986129;28;20052;-72
2021/09/08 12:15:34;;;;;;;9.38;8.35;;;;;;;49.13;13.64;100294.72;4985913;28;20052;-73
2021/09/08 12:18:18;;;;;;;10.57;8.05;;;;;;;48.92;13.27;100294.66;5014066;28;20068;-73
2021/09/08 12:21:18;;;;;;;9.55;8.52;;;;;;;48.98;13.00;100287.38;4999404;28;20128;-73
2021/09/08 12:24:26;;;;;;;9.38;8.35;;;;;;;48.97;13.06;100294.25;5013998;28;20060;-73
2021/09/08 12:27:24;;;;;;;8.60;7.80;;;;;;;47.93;13.85;100280.28;5013870;28;20049;-73
2021/09/08 12:30:09;;;;;;;9.68;8.55;;;;;;;47.13;14.25;100283.97;5013885;28;20044;-72
2021/09/08 12:33:09;;;;;;;10.63;8.55;;;;;;;46.52;14.50;100266.66;5014161;28;20111;-73
2021/09/08 12:35:56;;;;;;;10.73;7.70;;;;;;;46.60;15.29;100267.53;5014221;28;20149;-73
2021/09/08 12:38:41;;;;;;;10.13;7.97;;;;;;;46.50;14.59;100257.75;4985862;28;20506;-72
2021/09/08 12:41:27;;;;;;;8.48;7.47;;;;;;;46.62;14.48;100263.19;5013672;28;20141;-73
2021/09/08 12:44:11;;;;;;;11.93;8.30;;;;;;;46.52;14.72;100249.72;4985191;28;20053;-73
2021/09/08 12:47:06;;;;;;;10.00;8.45;;;;;;;46.27;14.94;100253.41;5013775;28;20048;-73